Time;durP1;ratioP1;P1;durP2;ratioP2;P2;SDS_P1;SDS_P2;PMS_P1;PMS_P2;Temp;Humidity;BMP_temperature;BMP_pressure;BME280_temperature;BME280_humidity;BME280_pressure;Samples;Min_cycle;Max_cycle;Signal;HPM_P1;HPM_P2
2023/10/23 00:01:55;;;;;;;0.70;0.40;;;;;;;;;;5038334;28;20176;-81
2023/10/23 00:04:21;;;;;;;0.00;0.00;;;;;;;;;;5018436;28;20218;-81
2023/10/23 00:06:46;;;;;;;0.37;0.27;;;;;;;;;;5038099;28;20182;-81
2023/10/23 00:09:11;;;;;;;0.17;0.17;;;;;;;;;;5037983;28;20230;-81
2023/10/23 00:11:37;;;;;;;0.00;0.00;;;;;;;;;;5020848;28;20176;-82
2023/10/23 00:14:02;;;;;;;0.20;0.20;;;;;;;;;;5021571;28;20187;-81
2023/10/23 00:16:27;;;;;;;0.07;0.07;;;;;;;;;;5021064;28;20195;-81
2023/10/23 00:18:52;;;;;;;0.00;0.00;;;;;;;;;;5019925;28;20184;-81
2023/10/23 00:21:17;;;;;;;0.93;0.93;;;;;;;;;;5038533;28;20172;-81
2023/10/23 00:23:43;;;;;;;0.33;0.33;;;;;;;;;;5021236;28;20266;-81
2023/10/23 00:26:08;;;;;;;0.00;0.00;;;;;;;;;;5039264;28;20663;-81
2023/10/23 00:28:33;;;;;;;0.00;0.00;;;;;;;;;;5039616;28;20612;-81
2023/10/23 00:30:59;;;;;;;0.00;0.00;;;;;;;;;;5039740;28;20164;-81
2023/10/23 00:33:24;;;;;;;0.00;0.00;;;;;;;;;;5021277;28;20176;-81
2023/10/23 00:35:49;;;;;;;0.00;0.00;;;;;;;;;;5039224;28;20200;-81
2023/10/23 00:38:14;;;;;;;0.23;0.23;;;;;;;;;;5021447;28;20284;-81
2023/10/23 00:40:40;;;;;;;0.17;0.17;;;;;;;;;;5021392;28;20210;-81
2023/10/23 00:43:18;;;;;;;0.00;0.00;;;;;;;;;;5020770;28;20183;-81
2023/10/23 00:46:10;;;;;;;0.00;0.00;;;;;;;;;;5038622;28;20200;-81
2023/10/23 00:48:35;;;;;;;0.30;0.30;;;;;;;;;;5007950;28;20258;-81
2023/10/23 00:51:00;;;;;;;0.00;0.00;;;;;;;;;;5021517;28;20171;-81
2023/10/23 00:53:33;;;;;;;0.63;0.63;;;;;;;;;;5020907;28;20175;-81
2023/10/23 00:55:59;;;;;;;0.83;0.83;;;;;;;;;;5019880;28;20188;-81
2023/10/23 00:58:27;;;;;;;0.43;0.43;;;;;;;;;;5019534;28;20552;-81
2023/10/23 01:00:54;;;;;;;0.00;0.00;;;;;;;;;;5019528;28;20187;-82
2023/10/23 01:03:19;;;;;;;0.33;0.10;;;;;;;;;;5037651;28;20692;-81
2023/10/23 01:05:44;;;;;;;0.37;0.37;;;;;;;;;;5019663;28;20283;-81
2023/10/23 01:08:10;;;;;;;0.00;0.00;;;;;;;;;;5037750;28;20203;-81
2023/10/23 01:10:35;;;;;;;0.00;0.00;;;;;;;;;;5019932;28;20215;-81
2023/10/23 01:13:04;;;;;;;0.00;0.00;;;;;;;;;;5037550;28;20636;-81
2023/10/23 01:15:29;;;;;;;0.00;0.00;;;;;;;;;;5019617;28;20219;-81
2023/10/23 01:17:55;;;;;;;0.40;0.40;;;;;;;;;;5024471;28;20191;-81
2023/10/23 01:20:20;;;;;;;0.10;0.10;;;;;;;;;;5024382;28;20657;-81
2023/10/23 01:22:45;;;;;;;0.10;0.10;;;;;;;;;;5041585;28;20187;-81
2023/10/23 01:25:15;;;;;;;0.00;0.00;;;;;;;;;;5023142;28;20207;-81
2023/10/23 01:27:40;;;;;;;0.10;0.10;;;;;;;;;;5033319;28;20601;-82
2023/10/23 01:30:06;;;;;;;0.00;0.00;;;;;;;;;;5022787;28;20176;-81
2023/10/23 01:32:31;;;;;;;0.43;0.40;;;;;;;;;;5040892;28;20195;-81
2023/10/23 01:34:56;;;;;;;0.10;0.10;;;;;;;;;;5041012;28;20234;-81
2023/10/23 01:37:21;;;;;;;0.00;0.00;;;;;;;;;;5040515;28;20176;-81
2023/10/23 01:39:47;;;;;;;0.20;0.20;;;;;;;;;;5041078;28;20562;-81
2023/10/23 01:42:12;;;;;;;0.43;0.43;;;;;;;;;;5023297;28;20189;-82
2023/10/23 01:44:37;;;;;;;0.63;0.63;;;;;;;;;;5040952;28;20259;-81
2023/10/23 01:47:02;;;;;;;0.00;0.00;;;;;;;;;;5041454;28;20168;-81
2023/10/23 01:49:28;;;;;;;0.20;0.20;;;;;;;;;;5022842;28;20188;-81
2023/10/23 01:51:54;;;;;;;0.00;0.00;;;;;;;;;;5022705;28;20179;-81
2023/10/23 01:54:20;;;;;;;0.20;0.20;;;;;;;;;;5022220;28;20243;-81
2023/10/23 01:56:45;;;;;;;0.20;0.20;;;;;;;;;;5022789;28;20179;-81
2023/10/23 01:59:10;;;;;;;0.17;0.17;;;;;;;;;;5022586;28;20590;-81
2023/10/23 02:01:38;;;;;;;0.27;0.27;;;;;;;;;;5029599;28;20205;-80
2023/10/23 02:04:03;;;;;;;13.40;0.63;;;;;;;;;;5032591;28;20200;-81
2023/10/23 02:06:29;;;;;;;1.37;1.27;;;;;;;;;;5030968;28;20242;-81
2023/10/23 02:08:54;;;;;;;28.77;0.83;;;;;;;;;;5042242;28;20226;-81
2023/10/23 02:11:19;;;;;;;0.60;0.60;;;;;;;;;;5023235;28;20711;-81
2023/10/23 02:13:45;;;;;;;0.77;0.60;;;;;;;;;;5040869;28;20164;-81
2023/10/23 02:16:10;;;;;;;0.57;0.57;;;;;;;;;;5040599;28;20192;-81
2023/10/23 02:18:36;;;;;;;0.63;0.63;;;;;;;;;;5023516;28;20175;-81
2023/10/23 02:21:01;;;;;;;0.40;0.40;;;;;;;;;;5023169;28;20179;-81
2023/10/23 02:23:26;;;;;;;0.70;0.70;;;;;;;;;;5022270;28;20180;-81
2023/10/23 02:25:51;;;;;;;0.20;0.20;;;;;;;;;;5022247;28;20200;-81
2023/10/23 02:28:17;;;;;;;0.10;0.10;;;;;;;;;;5021309;28;20282;-81
2023/10/23 02:30:42;;;;;;;0.10;0.10;;;;;;;;;;5022070;28;20199;-81
2023/10/23 02:33:07;;;;;;;0.40;0.40;;;;;;;;;;5039502;28;20172;-81
2023/10/23 02:35:36;;;;;;;0.07;0.07;;;;;;;;;;5039281;28;20218;-81
2023/10/23 02:38:02;;;;;;;0.60;0.60;;;;;;;;;;5021369;28;20176;-81
2023/10/23 02:40:27;;;;;;;0.57;0.57;;;;;;;;;;5021326;28;20326;-81
2023/10/23 02:42:53;;;;;;;0.90;0.90;;;;;;;;;;5021112;28;20226;-81
2023/10/23 02:45:18;;;;;;;0.00;0.00;;;;;;;;;;5039211;28;20192;-81
2023/10/23 02:47:43;;;;;;;1.03;1.03;;;;;;;;;;5039203;28;20625;-81
2023/10/23 02:50:08;;;;;;;0.80;0.80;;;;;;;;;;5021447;28;20522;-81
2023/10/23 02:52:33;;;;;;;0.40;0.40;;;;;;;;;;5038383;28;20263;-81
2023/10/23 02:54:59;;;;;;;0.10;0.10;;;;;;;;;;5037950;28;20192;-81
2023/10/23 02:57:24;;;;;;;1.10;0.47;;;;;;;;;;5020731;28;20247;-81
2023/10/23 02:59:49;;;;;;;0.00;0.00;;;;;;;;;;5020466;28;20206;-81
2023/10/23 03:02:14;;;;;;;0.67;0.63;;;;;;;;;;5038590;28;20176;-81
2023/10/23 03:04:40;;;;;;;0.30;0.30;;;;;;;;;;5037487;28;20203;-81
2023/10/23 03:07:05;;;;;;;0.50;0.50;;;;;;;;;;5038121;28;20576;-81
2023/10/23 03:09:30;;;;;;;0.63;0.63;;;;;;;;;;5037875;28;20298;-81
2023/10/23 03:11:55;;;;;;;0.70;0.70;;;;;;;;;;5037776;28;20178;-82
2023/10/23 03:14:20;;;;;;;0.90;0.90;;;;;;;;;;5035681;28;20204;-82
2023/10/23 03:16:47;;;;;;;1.47;0.60;;;;;;;;;;5019983;28;20183;-81
2023/10/23 03:19:12;;;;;;;0.57;0.57;;;;;;;;;;5037316;28;20207;-81
2023/10/23 03:21:37;;;;;;;1.43;1.33;;;;;;;;;;5037346;28;20544;-81
2023/10/23 03:24:03;;;;;;;0.57;0.57;;;;;;;;;;5020399;28;20172;-81
2023/10/23 03:26:28;;;;;;;0.40;0.40;;;;;;;;;;5040007;28;20176;-81
2023/10/23 03:28:53;;;;;;;1.13;1.10;;;;;;;;;;5021593;28;20682;-81
2023/10/23 03:31:18;;;;;;;0.33;0.33;;;;;;;;;;5039596;28;20176;-81
2023/10/23 03:33:46;;;;;;;2.93;0.93;;;;;;;;;;5021959;28;20180;-81
2023/10/23 03:36:11;;;;;;;0.53;0.53;;;;;;;;;;5039488;28;20195;-81
2023/10/23 03:38:36;;;;;;;0.97;0.77;;;;;;;;;;5021912;28;20529;-81
2023/10/23 03:41:02;;;;;;;1.20;1.20;;;;;;;;;;5021737;28;20860;-81
2023/10/23 03:43:27;;;;;;;2.47;1.10;;;;;;;;;;5021797;28;20187;-81
2023/10/23 03:45:52;;;;;;;10.37;1.40;;;;;;;;;;5039440;28;20211;-81
2023/10/23 03:48:18;;;;;;;1.23;1.13;;;;;;;;;;5021650;28;20203;-82
2023/10/23 03:50:43;;;;;;;0.70;0.70;;;;;;;;;;5021666;28;20184;-81
2023/10/23 03:53:08;;;;;;;0.27;0.27;;;;;;;;;;5021280;28;20190;-81
2023/10/23 03:55:37;;;;;;;3.50;0.70;;;;;;;;;;5020987;28;20199;-81
2023/10/23 03:58:02;;;;;;;0.40;0.40;;;;;;;;;;5038878;28;20178;-81
2023/10/23 04:00:27;;;;;;;0.80;0.80;;;;;;;;;;5021109;28;20203;-81
2023/10/23 04:02:52;;;;;;;0.20;0.20;;;;;;;;;;5020883;28;20176;-81
2023/10/23 04:05:18;;;;;;;0.20;0.20;;;;;;;;;;5038362;28;20563;-81
2023/10/23 04:07:43;;;;;;;3.00;0.80;;;;;;;;;;5020779;28;20664;-81
2023/10/23 04:10:08;;;;;;;0.53;0.53;;;;;;;;;;5038554;28;20201;-81
2023/10/23 04:12:34;;;;;;;1.50;1.30;;;;;;;;;;5021122;28;21542;-82
2023/10/23 04:14:59;;;;;;;0.83;0.53;;;;;;;;;;5020682;28;20215;-81
2023/10/23 04:17:24;;;;;;;0.97;0.87;;;;;;;;;;5037790;28;20637;-81
2023/10/23 04:19:49;;;;;;;7.03;1.10;;;;;;;;;;5018647;28;20184;-81
2023/10/23 04:22:14;;;;;;;1.30;1.30;;;;;;;;;;5033792;28;20173;-81
2023/10/23 04:24:40;;;;;;;1.70;0.77;;;;;;;;;;5017297;28;20210;-81
2023/10/23 04:27:05;;;;;;;4.43;1.50;;;;;;;;;;5039147;28;20164;-81
2023/10/23 04:29:30;;;;;;;0.77;0.77;;;;;;;;;;5030951;28;20196;-81
2023/10/23 04:31:55;;;;;;;1.00;1.00;;;;;;;;;;5030325;28;20186;-81
2023/10/23 04:34:21;;;;;;;1.90;1.80;;;;;;;;;;5038612;28;20188;-82
2023/10/23 04:36:46;;;;;;;1.40;1.30;;;;;;;;;;5038403;28;20180;-81
2023/10/23 04:39:11;;;;;;;0.53;0.53;;;;;;;;;;5020142;28;20187;-82
2023/10/23 04:41:36;;;;;;;0.27;0.27;;;;;;;;;;5020106;28;20184;-81
2023/10/23 04:44:01;;;;;;;0.20;0.10;;;;;;;;;;5019476;28;20588;-81
2023/10/23 04:46:27;;;;;;;0.30;0.30;;;;;;;;;;5037931;28;20180;-81
2023/10/23 04:48:52;;;;;;;0.00;0.00;;;;;;;;;;5020470;28;20726;-81
2023/10/23 04:51:17;;;;;;;2.30;0.57;;;;;;;;;;5018778;28;20180;-81
2023/10/23 04:53:42;;;;;;;2.27;2.17;;;;;;;;;;5017730;28;20210;-81
2023/10/23 04:56:07;;;;;;;0.57;0.57;;;;;;;;;;5018756;28;20196;-81
2023/10/23 04:58:33;;;;;;;1.40;1.30;;;;;;;;;;5037439;28;20186;-81
2023/10/23 05:00:58;;;;;;;0.20;0.20;;;;;;;;;;5036982;28;20198;-81
2023/10/23 05:03:23;;;;;;;0.67;0.67;;;;;;;;;;5019100;28;20271;-81
2023/10/23 05:05:48;;;;;;;1.50;1.47;;;;;;;;;;5018768;28;20207;-81
2023/10/23 05:08:14;;;;;;;3.50;0.90;;;;;;;;;;5036458;28;20273;-81
2023/10/23 05:10:39;;;;;;;1.90;1.80;;;;;;;;;;5036482;28;20168;-81
2023/10/23 05:13:04;;;;;;;0.63;0.63;;;;;;;;;;5017396;28;20716;-81
2023/10/23 05:15:30;;;;;;;1.10;1.00;;;;;;;;;;5035362;28;20265;-81
2023/10/23 05:17:55;;;;;;;1.10;0.97;;;;;;;;;;5036289;28;20275;-81
2023/10/23 05:20:21;;;;;;;0.60;0.60;;;;;;;;;;5018349;28;20183;-81
2023/10/23 05:22:46;;;;;;;0.83;0.83;;;;;;;;;;5018199;28;20187;-81
2023/10/23 05:25:11;;;;;;;1.73;1.47;;;;;;;;;;5035896;28;20198;-81
2023/10/23 05:27:37;;;;;;;1.60;1.50;;;;;;;;;;5017371;28;20175;-81
2023/10/23 05:30:03;;;;;;;1.00;1.00;;;;;;;;;;5017765;28;20263;-81
2023/10/23 05:32:29;;;;;;;2.40;2.30;;;;;;;;;;5035905;28;20167;-81
2023/10/23 05:34:54;;;;;;;1.00;0.93;;;;;;;;;;5035388;28;20238;-81
2023/10/23 05:37:19;;;;;;;0.80;0.80;;;;;;;;;;5017532;28;20179;-81
2023/10/23 05:39:45;;;;;;;1.43;1.37;;;;;;;;;;5035405;28;20199;-81
2023/10/23 05:42:10;;;;;;;1.40;1.30;;;;;;;;;;5017335;28;20188;-81
2023/10/23 05:44:35;;;;;;;1.30;1.20;;;;;;;;;;5016490;28;20210;-81
2023/10/23 05:47:00;;;;;;;0.63;0.63;;;;;;;;;;5035444;28;20236;-81
2023/10/23 05:49:26;;;;;;;1.60;1.50;;;;;;;;;;5035090;28;20210;-82
2023/10/23 05:51:52;;;;;;;1.93;1.83;;;;;;;;;;5017379;28;20179;-81
2023/10/23 05:54:17;;;;;;;0.30;0.30;;;;;;;;;;5034326;28;20196;-81
2023/10/23 05:56:42;;;;;;;1.90;0.80;;;;;;;;;;5034361;28;20172;-81
2023/10/23 05:59:08;;;;;;;0.43;0.43;;;;;;;;;;5035060;28;20198;-81
2023/10/23 06:01:33;;;;;;;1.00;1.00;;;;;;;;;;5017942;28;20222;-81
2023/10/23 06:03:59;;;;;;;0.53;0.53;;;;;;;;;;5020080;28;20545;-82
2023/10/23 06:06:24;;;;;;;0.40;0.40;;;;;;;;;;5037825;28;20266;-81
2023/10/23 06:08:49;;;;;;;0.43;0.43;;;;;;;;;;5038458;28;20203;-80
2023/10/23 06:11:14;;;;;;;0.80;0.80;;;;;;;;;;5019936;28;20191;-81
2023/10/23 06:13:39;;;;;;;4.93;0.83;;;;;;;;;;5019796;28;20180;-81
2023/10/23 06:16:05;;;;;;;1.77;1.67;;;;;;;;;;5038012;28;20204;-81
2023/10/23 06:18:34;;;;;;;0.60;0.60;;;;;;;;;;5019507;28;20179;-81
2023/10/23 06:21:03;;;;;;;0.67;0.67;;;;;;;;;;5037805;28;20302;-82
2023/10/23 06:23:28;;;;;;;1.33;1.27;;;;;;;;;;5019214;28;20282;-81
2023/10/23 06:25:54;;;;;;;0.10;0.10;;;;;;;;;;5021135;28;20208;-81
2023/10/23 06:28:19;;;;;;;0.57;0.33;;;;;;;;;;5020842;28;20286;-81
2023/10/23 06:30:44;;;;;;;0.90;0.90;;;;;;;;;;5021083;28;20528;-81
2023/10/23 06:33:10;;;;;;;0.40;0.40;;;;;;;;;;5039082;28;20183;-81
2023/10/23 06:35:35;;;;;;;0.67;0.67;;;;;;;;;;5020409;28;20196;-81
2023/10/23 06:38:00;;;;;;;0.83;0.83;;;;;;;;;;5021015;28;20246;-81
2023/10/23 06:40:25;;;;;;;0.20;0.20;;;;;;;;;;5038785;28;20630;-81
2023/10/23 06:42:50;;;;;;;0.53;0.53;;;;;;;;;;5020860;28;20291;-81
2023/10/23 06:45:15;;;;;;;0.63;0.63;;;;;;;;;;5039190;28;20183;-82
2023/10/23 06:47:41;;;;;;;0.73;0.73;;;;;;;;;;5020589;28;20629;-81
2023/10/23 06:50:06;;;;;;;0.10;0.10;;;;;;;;;;5038055;28;20172;-81
2023/10/23 06:52:32;;;;;;;0.30;0.30;;;;;;;;;;5019756;28;20222;-82
2023/10/23 06:54:57;;;;;;;1.90;1.03;;;;;;;;;;5029789;28;20795;-81
2023/10/23 06:57:22;;;;;;;0.63;0.63;;;;;;;;;;5031110;28;20198;-81
2023/10/23 06:59:48;;;;;;;0.10;0.10;;;;;;;;;;5028127;28;20190;-82
2023/10/23 07:02:13;;;;;;;0.20;0.20;;;;;;;;;;5022897;28;20187;-82
2023/10/23 07:04:38;;;;;;;4.07;1.23;;;;;;;;;;5022255;28;20784;-82
2023/10/23 07:07:04;;;;;;;0.30;0.30;;;;;;;;;;5022173;28;20176;-82
2023/10/23 07:09:29;;;;;;;0.27;0.27;;;;;;;;;;5021761;28;20235;-81
2023/10/23 07:11:55;;;;;;;2.77;1.13;;;;;;;;;;5039207;28;20172;-81
2023/10/23 07:14:20;;;;;;;0.00;0.00;;;;;;;;;;5037954;28;20579;-82
2023/10/23 07:16:45;;;;;;;0.30;0.30;;;;;;;;;;5038209;28;20179;-81
2023/10/23 07:19:11;;;;;;;0.30;0.30;;;;;;;;;;5020710;28;20187;-81
2023/10/23 07:21:36;;;;;;;0.27;0.27;;;;;;;;;;5038481;28;20545;-81
2023/10/23 07:24:02;;;;;;;0.10;0.10;;;;;;;;;;5037793;28;20266;-81
2023/10/23 07:26:28;;;;;;;0.00;0.00;;;;;;;;;;5021937;28;20180;-81
2023/10/23 07:28:53;;;;;;;0.00;0.00;;;;;;;;;;5039409;28;20187;-81
2023/10/23 07:31:18;;;;;;;0.00;0.00;;;;;;;;;;5039856;28;20160;-83
2023/10/23 07:33:43;;;;;;;0.00;0.00;;;;;;;;;;5038991;28;20176;-79
2023/10/23 07:36:10;;;;;;;0.83;0.67;;;;;;;;;;5039747;28;20216;-81
2023/10/23 07:38:36;;;;;;;0.00;0.00;;;;;;;;;;5021878;28;20237;-81
2023/10/23 07:41:01;;;;;;;0.00;0.00;;;;;;;;;;5021100;28;20175;-82
2023/10/23 07:43:27;;;;;;;0.00;0.00;;;;;;;;;;5037654;28;20168;-81
2023/10/23 07:45:53;;;;;;;0.00;0.00;;;;;;;;;;5019235;28;20210;-81
2023/10/23 07:48:19;;;;;;;0.00;0.00;;;;;;;;;;5019352;28;20207;-81
2023/10/23 07:50:44;;;;;;;0.00;0.00;;;;;;;;;;5036918;28;20203;-81
2023/10/23 07:53:09;;;;;;;2.43;2.43;;;;;;;;;;5036789;28;21559;-81
2023/10/23 07:55:35;;;;;;;0.00;0.00;;;;;;;;;;5035336;28;20202;-82
2023/10/23 07:58:00;;;;;;;0.00;0.00;;;;;;;;;;5036287;28;20171;-81
2023/10/23 08:00:28;;;;;;;0.00;0.00;;;;;;;;;;5018323;28;20202;-81
2023/10/23 08:02:53;;;;;;;0.00;0.00;;;;;;;;;;5018718;28;20702;-81
2023/10/23 08:05:18;;;;;;;0.10;0.10;;;;;;;;;;5018323;28;20199;-81
2023/10/23 08:07:44;;;;;;;0.00;0.00;;;;;;;;;;5032372;28;20187;-81
2023/10/23 08:10:09;;;;;;;0.00;0.00;;;;;;;;;;5016331;28;20168;-81
2023/10/23 08:12:34;;;;;;;0.00;0.00;;;;;;;;;;5034697;28;20283;-81
2023/10/23 08:14:59;;;;;;;0.00;0.00;;;;;;;;;;5016652;28;20230;-80
2023/10/23 08:17:24;;;;;;;0.00;0.00;;;;;;;;;;5013758;28;20168;-80
2023/10/23 08:19:50;;;;;;;0.00;0.00;;;;;;;;;;5032978;28;20176;-81
2023/10/23 08:22:15;;;;;;;0.00;0.00;;;;;;;;;;5025697;28;20212;-82
2023/10/23 08:24:40;;;;;;;0.00;0.00;;;;;;;;;;5015208;28;20196;-82
2023/10/23 08:27:05;;;;;;;0.00;0.00;;;;;;;;;;5035565;28;20175;-81
2023/10/23 08:29:31;;;;;;;0.00;0.00;;;;;;;;;;5030122;28;20191;-81
2023/10/23 08:31:57;;;;;;;0.00;0.00;;;;;;;;;;5032335;28;20180;-81
2023/10/23 08:34:22;;;;;;;0.00;0.00;;;;;;;;;;5032616;28;20191;-82
2023/10/23 08:36:48;;;;;;;0.00;0.00;;;;;;;;;;5035303;28;20210;-82
2023/10/23 08:39:13;;;;;;;0.63;0.63;;;;;;;;;;5008515;28;20190;-80
2023/10/23 08:41:41;;;;;;;0.00;0.00;;;;;;;;;;5033237;28;20183;-81
2023/10/23 08:44:07;;;;;;;0.00;0.00;;;;;;;;;;5014804;28;20175;-82
2023/10/23 08:46:33;;;;;;;0.00;0.00;;;;;;;;;;5017197;28;20176;-83
2023/10/23 08:48:58;;;;;;;0.00;0.00;;;;;;;;;;5014140;28;20290;-80
2023/10/23 08:51:24;;;;;;;0.00;0.00;;;;;;;;;;5027646;28;20203;-79
2023/10/23 08:53:50;;;;;;;0.23;0.23;;;;;;;;;;5027423;28;20172;-79
2023/10/23 08:56:15;;;;;;;0.00;0.00;;;;;;;;;;5017440;28;20207;-79
2023/10/23 08:58:44;;;;;;;0.00;0.00;;;;;;;;;;5034743;28;20291;-79
2023/10/23 09:01:09;;;;;;;0.20;0.20;;;;;;;;;;5016873;28;20219;-78
2023/10/23 09:03:35;;;;;;;0.17;0.17;;;;;;;;;;5034239;28;20660;-79
2023/10/23 09:06:00;;;;;;;1.23;1.03;;;;;;;;;;5034357;28;20243;-79
2023/10/23 09:08:27;;;;;;;5.50;0.50;;;;;;;;;;5034399;28;20286;-80
2023/10/23 09:11:03;;;;;;;0.00;0.00;;;;;;;;;;5034291;28;20171;-78
2023/10/23 09:13:32;;;;;;;0.00;0.00;;;;;;;;;;5016280;28;20176;-79
2023/10/23 09:15:58;;;;;;;0.00;0.00;;;;;;;;;;5034097;28;20571;-78
2023/10/23 09:18:23;;;;;;;0.47;0.47;;;;;;;;;;5017480;28;20175;-79
2023/10/23 09:20:49;;;;;;;0.90;0.53;;;;;;;;;;5022042;28;20191;-78
2023/10/23 09:23:15;;;;;;;0.30;0.30;;;;;;;;;;5039386;28;20191;-79
2023/10/23 09:25:41;;;;;;;1.43;1.27;;;;;;;;;;5009853;28;20230;-79
2023/10/23 09:28:10;;;;;;;0.00;0.00;;;;;;;;;;5035582;28;20188;-79
2023/10/23 09:30:36;;;;;;;1.70;1.60;;;;;;;;;;5036115;28;20623;-79
2023/10/23 09:33:01;;;;;;;0.10;0.10;;;;;;;;;;5035766;28;20172;-79
2023/10/23 09:35:27;;;;;;;0.30;0.30;;;;;;;;;;5018116;28;20187;-80
2023/10/23 09:37:52;;;;;;;0.00;0.00;;;;;;;;;;5038778;28;20175;-80
2023/10/23 09:40:18;;;;;;;0.00;0.00;;;;;;;;;;5040386;28;20255;-80
2023/10/23 09:42:43;;;;;;;0.00;0.00;;;;;;;;;;5020097;28;20729;-80
2023/10/23 09:45:09;;;;;;;1.20;1.20;;;;;;;;;;5021666;28;20612;-79
2023/10/23 09:47:35;;;;;;;1.60;1.50;;;;;;;;;;5021704;28;20176;-79
2023/10/23 09:50:03;;;;;;;0.00;0.00;;;;;;;;;;5039615;28;20195;-79
2023/10/23 09:52:31;;;;;;;2.20;1.90;;;;;;;;;;5021257;28;20226;-79
2023/10/23 09:55:00;;;;;;;0.00;0.00;;;;;;;;;;5019028;28;20200;-79
2023/10/23 09:57:31;;;;;;;0.00;0.00;;;;;;;;;;5021074;28;20195;-79
2023/10/23 09:59:59;;;;;;;0.00;0.00;;;;;;;;;;5039399;28;20172;-79
2023/10/23 10:02:26;;;;;;;0.00;0.00;;;;;;;;;;5038921;28;20543;-80
2023/10/23 10:04:56;;;;;;;1.37;0.97;;;;;;;;;;5038760;28;20242;-80
2023/10/23 10:07:23;;;;;;;0.00;0.00;;;;;;;;;;5020657;28;20195;-79
2023/10/23 10:09:49;;;;;;;0.00;0.00;;;;;;;;;;5020321;28;20669;-79
2023/10/23 10:12:15;;;;;;;1.77;1.67;;;;;;;;;;5038567;28;20176;-79
2023/10/23 10:14:41;;;;;;;0.10;0.10;;;;;;;;;;5030013;28;20225;-79
2023/10/23 10:17:06;;;;;;;0.80;0.67;;;;;;;;;;5038302;28;20251;-80
2023/10/23 10:19:33;;;;;;;0.00;0.00;;;;;;;;;;5038361;28;20180;-79
2023/10/23 10:22:04;;;;;;;0.00;0.00;;;;;;;;;;5020401;28;20172;-80
2023/10/23 10:24:31;;;;;;;0.00;0.00;;;;;;;;;;5040202;28;20203;-79
2023/10/23 10:26:56;;;;;;;0.00;0.00;;;;;;;;;;5023577;28;20184;-81
2023/10/23 10:29:25;;;;;;;0.00;0.00;;;;;;;;;;5023513;28;20567;-80
2023/10/23 10:32:05;;;;;;;0.00;0.00;;;;;;;;;;5023106;28;20218;-80
2023/10/23 10:34:34;;;;;;;0.00;0.00;;;;;;;;;;5040237;28;20226;-81
2023/10/23 10:36:59;;;;;;;0.00;0.00;;;;;;;;;;5022529;28;20176;-80
2023/10/23 10:39:50;;;;;;;0.00;0.00;;;;;;;;;;5040345;28;20229;-80
2023/10/23 10:42:19;;;;;;;0.00;0.00;;;;;;;;;;5021838;28;20183;-80
2023/10/23 10:44:54;;;;;;;0.00;0.00;;;;;;;;;;5021480;28;20203;-80
2023/10/23 10:47:19;;;;;;;0.00;0.00;;;;;;;;;;5040762;28;20182;-81
2023/10/23 10:49:45;;;;;;;0.47;0.40;;;;;;;;;;5039465;28;20192;-81
2023/10/23 10:52:27;;;;;;;0.00;0.00;;;;;;;;;;5040547;28;20199;-80
2023/10/23 10:54:54;;;;;;;0.83;0.83;;;;;;;;;;5016043;28;20191;-80
2023/10/23 10:57:20;;;;;;;1.50;0.90;;;;;;;;;;5040825;28;20508;-81
2023/10/23 10:59:45;;;;;;;0.00;0.00;;;;;;;;;;5040221;28;20176;-82
2023/10/23 11:02:10;;;;;;;0.00;0.00;;;;;;;;;;5040875;28;20648;-79
2023/10/23 11:04:35;;;;;;;0.00;0.00;;;;;;;;;;5039648;28;20200;-80
2023/10/23 11:07:01;;;;;;;1.23;0.80;;;;;;;;;;5038084;28;20194;-78
2023/10/23 11:09:26;;;;;;;1.33;1.23;;;;;;;;;;5017862;28;20209;-78
2023/10/23 11:11:51;;;;;;;0.00;0.00;;;;;;;;;;5035759;28;20582;-78
2023/10/23 11:14:16;;;;;;;0.50;0.20;;;;;;;;;;5036109;28;20246;-78
2023/10/23 11:16:42;;;;;;;0.00;0.00;;;;;;;;;;5036438;28;20176;-79
2023/10/23 11:19:07;;;;;;;0.40;0.40;;;;;;;;;;5036693;28;20187;-78
2023/10/23 11:21:32;;;;;;;1.43;1.20;;;;;;;;;;5018850;28;20669;-78
2023/10/23 11:23:58;;;;;;;0.00;0.00;;;;;;;;;;5036517;28;20180;-79
2023/10/23 11:26:23;;;;;;;2.30;1.53;;;;;;;;;;5018340;28;20251;-78
2023/10/23 11:28:49;;;;;;;0.73;0.73;;;;;;;;;;5036622;28;20669;-79
2023/10/23 11:31:14;;;;;;;0.67;0.67;;;;;;;;;;5036955;28;20251;-78
2023/10/23 11:33:39;;;;;;;0.10;0.10;;;;;;;;;;5018658;28;20211;-78
2023/10/23 11:36:05;;;;;;;0.20;0.20;;;;;;;;;;5017979;28;20210;-79
2023/10/23 11:38:35;;;;;;;0.20;0.20;;;;;;;;;;5036324;28;20176;-78
2023/10/23 11:41:01;;;;;;;0.20;0.20;;;;;;;;;;5035256;28;20172;-79
2023/10/23 11:43:26;;;;;;;0.20;0.10;;;;;;;;;;5018270;28;20190;-79
2023/10/23 11:45:51;;;;;;;0.33;0.33;;;;;;;;;;5063640;22;20702;-89
2023/10/23 11:48:17;;;;;;;0.40;0.40;;;;;;;;;;4984045;28;20221;-91
2023/10/23 11:50:42;;;;;;;0.00;0.00;;;;;;;;;;4996625;28;20192;-89
2023/10/23 11:53:08;;;;;;;1.13;1.07;;;;;;;;;;4989519;28;20722;-89
2023/10/23 11:55:33;;;;;;;1.27;1.03;;;;;;;;;;4982897;28;20209;-89
2023/10/23 11:57:59;;;;;;;0.00;0.00;;;;;;;;;;4965660;28;20204;-89
2023/10/23 12:00:24;;;;;;;0.40;0.40;;;;;;;;;;4966266;28;20280;-90
2023/10/23 12:02:50;;;;;;;0.00;0.00;;;;;;;;;;4964565;28;20252;-89
2023/10/23 12:05:16;;;;;;;0.00;0.00;;;;;;;;;;4965313;28;20205;-89
2023/10/23 12:07:45;;;;;;;0.00;0.00;;;;;;;;;;4964618;28;20190;-89
2023/10/23 12:10:11;;;;;;;0.00;0.00;;;;;;;;;;4990474;28;20183;-90
2023/10/23 12:12:40;;;;;;;0.30;0.30;;;;;;;;;;4974070;28;20273;-90
2023/10/23 12:15:09;;;;;;;0.00;0.00;;;;;;;;;;4965814;28;20210;-89
2023/10/23 12:17:35;;;;;;;0.30;0.30;;;;;;;;;;4993525;28;20675;-90
2023/10/23 12:20:00;;;;;;;0.00;0.00;;;;;;;;;;4969309;28;20188;-90
2023/10/23 12:23:00;;;;;;;0.00;0.00;;;;;;;;;;4968260;28;20186;-88
2023/10/23 12:28:39;;;;;;;0.30;0.27;;;;;;;;;;4905261;29;20302;-89
2023/10/23 12:31:04;;;;;;;0.10;0.10;;;;;;;;;;4904827;29;20196;-89
2023/10/23 12:33:30;;;;;;;0.00;0.00;;;;;;;;;;4960879;28;20218;-89
2023/10/23 12:35:55;;;;;;;0.00;0.00;;;;;;;;;;4976248;28;20291;-89
2023/10/23 12:38:21;;;;;;;0.00;0.00;;;;;;;;;;4985649;28;20204;-89
2023/10/23 12:40:48;;;;;;;0.50;0.50;;;;;;;;;;4968619;28;20587;-89
2023/10/23 12:43:13;;;;;;;0.00;0.00;;;;;;;;;;4968180;28;20216;-90
2023/10/23 12:45:39;;;;;;;0.00;0.00;;;;;;;;;;4972880;28;20710;-89
2023/10/23 12:48:04;;;;;;;0.00;0.00;;;;;;;;;;4982520;28;20739;-89
2023/10/23 12:50:29;;;;;;;0.00;0.00;;;;;;;;;;4984216;28;20178;-88
2023/10/23 12:53:16;;;;;;;0.00;0.00;;;;;;;;;;4968530;28;20538;-89
2023/10/23 12:55:49;;;;;;;0.07;0.07;;;;;;;;;;4957169;28;20653;-89
2023/10/23 12:58:14;;;;;;;0.37;0.37;;;;;;;;;;4965276;28;20213;-89
2023/10/23 13:00:42;;;;;;;0.00;0.00;;;;;;;;;;4968325;28;20213;-89
2023/10/23 13:03:08;;;;;;;17.73;4.80;;;;;;;;;;4968014;28;20334;-90
2023/10/23 13:05:33;;;;;;;0.00;0.00;;;;;;;;;;4966088;28;20217;-89
2023/10/23 13:07:58;;;;;;;0.00;0.00;;;;;;;;;;4965132;28;20258;-90
2023/10/23 13:10:23;;;;;;;0.43;0.43;;;;;;;;;;4967418;28;20493;-88
2023/10/23 13:12:49;;;;;;;0.57;0.57;;;;;;;;;;4966646;28;20236;-89
2023/10/23 13:15:14;;;;;;;0.83;0.83;;;;;;;;;;4966310;28;20200;-89
2023/10/23 13:17:39;;;;;;;0.53;0.53;;;;;;;;;;4990319;28;20256;-89
2023/10/23 13:20:06;;;;;;;0.00;0.00;;;;;;;;;;4973119;28;20238;-88
2023/10/23 13:22:31;;;;;;;0.00;0.00;;;;;;;;;;4975668;28;20185;-88
2023/10/23 13:24:57;;;;;;;0.37;0.37;;;;;;;;;;4991078;28;20197;-89
2023/10/23 13:27:22;;;;;;;0.00;0.00;;;;;;;;;;4981913;28;20188;-88
2023/10/23 13:29:47;;;;;;;0.10;0.10;;;;;;;;;;4971921;28;20316;-89
2023/10/23 13:32:12;;;;;;;0.00;0.00;;;;;;;;;;4980467;28;20174;-89
2023/10/23 13:34:38;;;;;;;0.00;0.00;;;;;;;;;;4977748;28;20189;-89
2023/10/23 13:37:03;;;;;;;0.00;0.00;;;;;;;;;;4976684;28;20184;-88
2023/10/23 13:39:28;;;;;;;0.47;0.47;;;;;;;;;;4989349;28;20166;-89
2023/10/23 13:41:53;;;;;;;0.00;0.00;;;;;;;;;;4976130;28;20192;-90
2023/10/23 13:44:19;;;;;;;0.13;0.13;;;;;;;;;;4969810;28;20185;-88
2023/10/23 13:46:45;;;;;;;0.00;0.00;;;;;;;;;;4976366;28;20201;-88
2023/10/23 13:49:10;;;;;;;0.00;0.00;;;;;;;;;;4976786;28;20703;-87
2023/10/23 13:51:35;;;;;;;0.67;0.57;;;;;;;;;;4977115;28;20185;-88
2023/10/23 13:54:00;;;;;;;0.43;0.43;;;;;;;;;;4970324;28;20316;-88
2023/10/23 13:56:26;;;;;;;0.00;0.00;;;;;;;;;;4991956;28;20189;-89
2023/10/23 13:58:51;;;;;;;8.50;1.43;;;;;;;;;;4978150;28;20285;-88
2023/10/23 14:01:17;;;;;;;0.00;0.00;;;;;;;;;;4975595;28;20177;-88
2023/10/23 14:03:42;;;;;;;2.37;1.20;;;;;;;;;;4964362;28;20178;-88
2023/10/23 14:06:07;;;;;;;0.00;0.00;;;;;;;;;;4981897;28;20204;-89
2023/10/23 14:08:33;;;;;;;0.00;0.00;;;;;;;;;;4966600;28;20260;-89
2023/10/23 14:10:58;;;;;;;0.60;0.60;;;;;;;;;;4975295;28;20455;-89
2023/10/23 14:13:23;;;;;;;0.37;0.37;;;;;;;;;;4975131;28;20185;-88
2023/10/23 14:15:49;;;;;;;0.00;0.00;;;;;;;;;;4975172;28;20198;-88
2023/10/23 14:18:15;;;;;;;0.23;0.23;;;;;;;;;;4967270;28;20212;-89
2023/10/23 14:20:40;;;;;;;0.00;0.00;;;;;;;;;;4967025;28;20583;-89
2023/10/23 14:23:05;;;;;;;0.57;0.57;;;;;;;;;;4968567;28;20216;-89
2023/10/23 14:25:30;;;;;;;0.00;0.00;;;;;;;;;;4977081;28;20291;-90
2023/10/23 14:27:56;;;;;;;0.00;0.00;;;;;;;;;;4978486;28;20185;-88
2023/10/23 14:30:21;;;;;;;0.00;0.00;;;;;;;;;;4996092;28;20659;-89
2023/10/23 14:32:46;;;;;;;0.87;0.43;;;;;;;;;;4978362;28;20651;-88
2023/10/23 14:35:11;;;;;;;0.00;0.00;;;;;;;;;;4978680;28;20284;-90
2023/10/23 14:37:37;;;;;;;0.10;0.10;;;;;;;;;;4995836;28;20256;-88
2023/10/23 14:40:02;;;;;;;0.00;0.00;;;;;;;;;;4971007;28;20185;-88